sensor_id;sensor_type;location;lat;lon;timestamp;pressure;altitude;pressure_sealevel;temperature;humidity
44531;BME280;30240;47.418;0.700;2023-04-08T00:01:09;100885.3271484375;;;7.16;78.66
44531;BME280;30240;47.418;0.700;2023-04-08T00:03:34;100885.91918945312;;;7.12;78.89
44531;BME280;30240;47.418;0.700;2023-04-08T00:05:58;100885.91918945312;;;7.12;78.89
44531;BME280;30240;47.418;0.700;2023-04-08T00:08:23;100886.9873046875;;;7.09;78.88
44531;BME280;30240;47.418;0.700;2023-04-08T00:10:48;100892.40112304688;;;7.16;78.73
44531;BME280;30240;47.418;0.700;2023-04-08T00:13:14;100895.1416015625;;;7.2;78.76
44531;BME280;30240;47.418;0.700;2023-04-08T00:15:39;100898.2666015625;;;7.07;78.9
44531;BME280;30240;47.418;0.700;2023-04-08T00:18:03;100900.03051757812;;;7.06;79.07
44531;BME280;30240;47.418;0.700;2023-04-08T00:20:29;100900.03051757812;;;7.06;79.07
44531;BME280;30240;47.418;0.700;2023-04-08T00:22:53;100906.61010742188;;;7.16;78.91
44531;BME280;30240;47.418;0.700;2023-04-08T00:25:19;100905.79833984375;;;7.07;79.11
44531;BME280;30240;47.418;0.700;2023-04-08T00:27:43;100900.78125;;;7.0;79.29
44531;BME280;30240;47.418;0.700;2023-04-08T00:30:09;100897.93090820312;;;6.95;79.35
44531;BME280;30240;47.418;0.700;2023-04-08T00:32:33;100897.93090820312;;;6.95;79.35
44531;BME280;30240;47.418;0.700;2023-04-08T00:34:58;100899.9755859375;;;6.93;79.44
44531;BME280;30240;47.418;0.700;2023-04-08T00:37:24;100908.92944335938;;;6.95;79.49
44531;BME280;30240;47.418;0.700;2023-04-08T00:39:49;100901.53198242188;;;6.95;79.52
44531;BME280;30240;47.418;0.700;2023-04-08T00:42:13;100903.7353515625;;;6.87;79.53
44531;BME280;30240;47.418;0.700;2023-04-08T00:44:38;100903.7353515625;;;6.87;79.53
44531;BME280;30240;47.418;0.700;2023-04-08T00:47:04;100899.67041015625;;;6.84;79.78
44531;BME280;30240;47.418;0.700;2023-04-08T00:49:29;100900.67138671875;;;6.74;79.97
44531;BME280;30240;47.418;0.700;2023-04-08T00:51:53;100899.89624023438;;;6.72;80.18
44531;BME280;30240;47.418;0.700;2023-04-08T00:54:19;100900.6103515625;;;6.67;80.23
44531;BME280;30240;47.418;0.700;2023-04-08T00:56:44;100900.6103515625;;;6.67;80.23
44531;BME280;30240;47.418;0.700;2023-04-08T00:59:10;100899.18823242188;;;6.6;80.43
44531;BME280;30240;47.418;0.700;2023-04-08T01:01:39;100898.60229492188;;;6.61;80.53
44531;BME280;30240;47.418;0.700;2023-04-08T01:04:04;100898.046875;;;6.53;80.64
44531;BME280;30240;47.418;0.700;2023-04-08T01:06:29;100903.21655273438;;;6.54;80.87
44531;BME280;30240;47.418;0.700;2023-04-08T01:08:49;100903.21655273438;;;6.54;80.87
44531;BME280;30240;47.418;0.700;2023-04-08T01:11:14;100903.96728515625;;;6.5;80.83
44531;BME280;30240;47.418;0.700;2023-04-08T01:13:40;100908.544921875;;;6.46;80.83
44531;BME280;30240;47.418;0.700;2023-04-08T01:16:04;100901.318359375;;;6.43;81.14
44531;BME280;30240;47.418;0.700;2023-04-08T01:18:29;100901.22680664062;;;6.3;81.44
44531;BME280;30240;47.418;0.700;2023-04-08T01:20:54;100901.22680664062;;;6.3;81.44
44531;BME280;30240;47.418;0.700;2023-04-08T01:23:22;100900.48217773438;;;6.23;81.56
44531;BME280;30240;47.418;0.700;2023-04-08T01:25:44;100909.60083007812;;;6.19;81.72
44531;BME280;30240;47.418;0.700;2023-04-08T01:28:12;100908.203125;;;6.19;81.88
44531;BME280;30240;47.418;0.700;2023-04-08T01:30:34;100909.716796875;;;6.08;82.12
44531;BME280;30240;47.418;0.700;2023-04-08T01:33:00;100909.716796875;;;6.08;82.12
44531;BME280;30240;47.418;0.700;2023-04-08T01:35:24;100918.07861328125;;;6.02;82.29
44531;BME280;30240;47.418;0.700;2023-04-08T01:37:50;100915.78369140625;;;6.02;82.43
44531;BME280;30240;47.418;0.700;2023-04-08T01:40:14;100913.75122070312;;;6.02;82.56
44531;BME280;30240;47.418;0.700;2023-04-08T01:42:39;100918.05419921875;;;6.05;82.47
44531;BME280;30240;47.418;0.700;2023-04-08T01:45:05;100918.05419921875;;;6.05;82.47
44531;BME280;30240;47.418;0.700;2023-04-08T01:47:29;100914.00146484375;;;6.09;82.25
44531;BME280;30240;47.418;0.700;2023-04-08T01:49:54;100913.28125;;;6.09;82.36
44531;BME280;30240;47.418;0.700;2023-04-08T01:52:19;100911.82250976562;;;6.06;82.32
44531;BME280;30240;47.418;0.700;2023-04-08T01:54:44;100905.96923828125;;;6.06;82.58
44531;BME280;30240;47.418;0.700;2023-04-08T01:57:11;100914.98413085938;;;6.02;82.51
44531;BME280;30240;47.418;0.700;2023-04-08T01:59:35;100914.98413085938;;;6.02;82.51
44531;BME280;30240;47.418;0.700;2023-04-08T02:01:59;100909.40551757812;;;6.04;82.63
44531;BME280;30240;47.418;0.700;2023-04-08T02:04:23;100908.17260742188;;;6.09;82.63
44531;BME280;30240;47.418;0.700;2023-04-08T02:06:48;100909.73510742188;;;6.01;82.5
44531;BME280;30240;47.418;0.700;2023-04-08T02:09:13;100911.5478515625;;;5.95;82.8
44531;BME280;30240;47.418;0.700;2023-04-08T02:11:38;100911.5478515625;;;5.95;82.8
44531;BME280;30240;47.418;0.700;2023-04-08T02:14:04;100911.9873046875;;;5.93;82.98
44531;BME280;30240;47.418;0.700;2023-04-08T02:16:33;100912.04833984375;;;5.97;83.04
44531;BME280;30240;47.418;0.700;2023-04-08T02:18:55;100915.15502929688;;;6.01;82.93
44531;BME280;30240;47.418;0.700;2023-04-08T02:21:21;100915.14282226562;;;5.99;83.16
44531;BME280;30240;47.418;0.700;2023-04-08T02:23:47;100915.14282226562;;;5.99;83.16
44531;BME280;30240;47.418;0.700;2023-04-08T02:26:12;100916.42456054688;;;5.98;83.39
44531;BME280;30240;47.418;0.700;2023-04-08T02:28:34;100917.51708984375;;;6.01;83.37
44531;BME280;30240;47.418;0.700;2023-04-08T02:30:59;100918.7744140625;;;5.99;83.47
44531;BME280;30240;47.418;0.700;2023-04-08T02:33:24;100916.03393554688;;;6.02;83.63
44531;BME280;30240;47.418;0.700;2023-04-08T02:35:50;100916.03393554688;;;6.02;83.63
44531;BME280;30240;47.418;0.700;2023-04-08T02:38:13;100916.552734375;;;6.01;83.59
44531;BME280;30240;47.418;0.700;2023-04-08T02:40:38;100915.234375;;;5.99;83.87
44531;BME280;30240;47.418;0.700;2023-04-08T02:43:03;100917.12646484375;;;6.02;83.88
44531;BME280;30240;47.418;0.700;2023-04-08T02:45:30;100910.7177734375;;;5.99;83.85
44531;BME280;30240;47.418;0.700;2023-04-08T02:47:54;100910.7177734375;;;5.99;83.85
44531;BME280;30240;47.418;0.700;2023-04-08T02:50:18;100915.92407226562;;;5.88;84.1
44531;BME280;30240;47.418;0.700;2023-04-08T02:52:43;100910.82153320312;;;5.91;84.4
44531;BME280;30240;47.418;0.700;2023-04-08T02:55:09;100911.962890625;;;5.9;84.46
44531;BME280;30240;47.418;0.700;2023-04-08T02:57:34;100908.33740234375;;;5.84;84.6
44531;BME280;30240;47.418;0.700;2023-04-08T02:59:58;100908.33740234375;;;5.84;84.6
44531;BME280;30240;47.418;0.700;2023-04-08T03:02:23;100903.43627929688;;;5.73;84.75
44531;BME280;30240;47.418;0.700;2023-04-08T03:04:48;100913.4521484375;;;5.66;84.82
44531;BME280;30240;47.418;0.700;2023-04-08T03:07:13;100906.50634765625;;;5.69;84.99
44531;BME280;30240;47.418;0.700;2023-04-08T03:09:38;100914.2333984375;;;5.67;84.93
44531;BME280;30240;47.418;0.700;2023-04-08T03:12:04;100914.2333984375;;;5.67;84.93
44531;BME280;30240;47.418;0.700;2023-04-08T03:14:28;100921.52099609375;;;5.67;85.03
44531;BME280;30240;47.418;0.700;2023-04-08T03:16:53;100925.537109375;;;5.64;85.01
44531;BME280;30240;47.418;0.700;2023-04-08T03:19:18;100923.45581054688;;;5.64;85.02
44531;BME280;30240;47.418;0.700;2023-04-08T03:21:43;100922.88818359375;;;5.59;85.28
44531;BME280;30240;47.418;0.700;2023-04-08T03:24:08;100920.90454101562;;;5.53;85.49
44531;BME280;30240;47.418;0.700;2023-04-08T03:26:33;100920.90454101562;;;5.53;85.49
44531;BME280;30240;47.418;0.700;2023-04-08T03:28:58;100924.4873046875;;;5.45;85.52
44531;BME280;30240;47.418;0.700;2023-04-08T03:31:24;100927.1728515625;;;5.45;85.75
44531;BME280;30240;47.418;0.700;2023-04-08T03:33:48;100930.38940429688;;;5.46;85.86
44531;BME280;30240;47.418;0.700;2023-04-08T03:36:13;100927.89306640625;;;5.42;86.05
44531;BME280;30240;47.418;0.700;2023-04-08T03:38:38;100927.89306640625;;;5.42;86.05
44531;BME280;30240;47.418;0.700;2023-04-08T03:41:03;100923.18725585938;;;5.47;86.04
44531;BME280;30240;47.418;0.700;2023-04-08T03:43:28;100930.50537109375;;;5.39;86.05
44531;BME280;30240;47.418;0.700;2023-04-08T03:45:54;100929.82788085938;;;5.4;86.22
44531;BME280;30240;47.418;0.700;2023-04-08T03:48:18;100931.34155273438;;;5.34;86.27
44531;BME280;30240;47.418;0.700;2023-04-08T03:50:43;100931.34155273438;;;5.34;86.27
44531;BME280;30240;47.418;0.700;2023-04-08T03:53:08;100928.10668945312;;;5.29;86.27
44531;BME280;30240;47.418;0.700;2023-04-08T03:55:33;100929.833984375;;;5.25;86.45
44531;BME280;30240;47.418;0.700;2023-04-08T03:57:58;100933.89892578125;;;5.21;86.42
44531;BME280;30240;47.418;0.700;2023-04-08T04:00:24;100935.13793945312;;;5.17;86.58
44531;BME280;30240;47.418;0.700;2023-04-08T04:02:48;100935.13793945312;;;5.17;86.58
44531;BME280;30240;47.418;0.700;2023-04-08T04:05:13;100934.67407226562;;;5.17;86.68
44531;BME280;30240;47.418;0.700;2023-04-08T04:07:38;100939.501953125;;;5.11;86.97
44531;BME280;30240;47.418;0.700;2023-04-08T04:10:04;100937.31079101562;;;5.15;87.07
44531;BME280;30240;47.418;0.700;2023-04-08T04:12:28;100937.90893554688;;;5.14;87.02
44531;BME280;30240;47.418;0.700;2023-04-08T04:14:53;100937.90893554688;;;5.14;87.02
44531;BME280;30240;47.418;0.700;2023-04-08T04:17:18;100941.0400390625;;;5.15;87.2
44531;BME280;30240;47.418;0.700;2023-04-08T04:19:43;100935.24169921875;;;5.22;87.25
44531;BME280;30240;47.418;0.700;2023-04-08T04:22:08;100938.95263671875;;;5.22;87.31
44531;BME280;30240;47.418;0.700;2023-04-08T04:24:34;100940.3564453125;;;5.24;87.35
44531;BME280;30240;47.418;0.700;2023-04-08T04:26:58;100940.3564453125;;;5.24;87.35
44531;BME280;30240;47.418;0.700;2023-04-08T04:29:23;100937.85400390625;;;5.27;87.3
44531;BME280;30240;47.418;0.700;2023-04-08T04:31:48;100936.48681640625;;;5.18;87.38
44531;BME280;30240;47.418;0.700;2023-04-08T04:34:13;100938.720703125;;;5.24;87.46
44531;BME280;30240;47.418;0.700;2023-04-08T04:36:38;100947.22900390625;;;5.21;87.55
44531;BME280;30240;47.418;0.700;2023-04-08T04:39:03;100947.22900390625;;;5.21;87.55
44531;BME280;30240;47.418;0.700;2023-04-08T04:41:28;100951.79443359375;;;5.17;87.74
44531;BME280;30240;47.418;0.700;2023-04-08T04:43:53;100951.62353515625;;;5.15;87.8
44531;BME280;30240;47.418;0.700;2023-04-08T04:46:18;100954.85229492188;;;5.17;87.9
44531;BME280;30240;47.418;0.700;2023-04-08T04:48:43;100956.04858398438;;;5.14;88.04
44531;BME280;30240;47.418;0.700;2023-04-08T04:51:08;100961.55395507812;;;5.08;88.04
44531;BME280;30240;47.418;0.700;2023-04-08T04:53:34;100961.55395507812;;;5.08;88.04
44531;BME280;30240;47.418;0.700;2023-04-08T04:55:59;100964.70336914062;;;5.07;88.14
44531;BME280;30240;47.418;0.700;2023-04-08T04:58:23;100962.890625;;;5.07;88.32
44531;BME280;30240;47.418;0.700;2023-04-08T05:00:48;100965.14892578125;;;5.07;88.3
44531;BME280;30240;47.418;0.700;2023-04-08T05:03:13;100971.73461914062;;;5.03;88.41
44531;BME280;30240;47.418;0.700;2023-04-08T05:05:38;100971.73461914062;;;5.03;88.41
44531;BME280;30240;47.418;0.700;2023-04-08T05:08:04;100970.09887695312;;;5.01;88.48
44531;BME280;30240;47.418;0.700;2023-04-08T05:10:28;100971.78344726562;;;5.03;88.58
44531;BME280;30240;47.418;0.700;2023-04-08T05:12:54;100976.59301757812;;;4.98;88.64
44531;BME280;30240;47.418;0.700;2023-04-08T05:15:19;100979.5166015625;;;4.98;88.59
44531;BME280;30240;47.418;0.700;2023-04-08T05:17:43;100979.5166015625;;;4.98;88.59
44531;BME280;30240;47.418;0.700;2023-04-08T05:20:09;100984.2529296875;;;4.97;88.8
44531;BME280;30240;47.418;0.700;2023-04-08T05:22:34;100974.29809570312;;;4.88;88.79
44531;BME280;30240;47.418;0.700;2023-04-08T05:24:58;100988.53759765625;;;4.95;88.79
44531;BME280;30240;47.418;0.700;2023-04-08T05:27:23;100993.6767578125;;;4.93;88.8
44531;BME280;30240;47.418;0.700;2023-04-08T05:29:48;100993.6767578125;;;4.93;88.8
44531;BME280;30240;47.418;0.700;2023-04-08T05:32:13;100993.81103515625;;;4.9;88.84
44531;BME280;30240;47.418;0.700;2023-04-08T05:34:38;100994.23217773438;;;4.95;88.72
44531;BME280;30240;47.418;0.700;2023-04-08T05:37:04;100993.56079101562;;;4.98;88.76
44531;BME280;30240;47.418;0.700;2023-04-08T05:39:28;100997.88208007812;;;4.97;88.68
44531;BME280;30240;47.418;0.700;2023-04-08T05:41:53;100997.88208007812;;;4.97;88.68
44531;BME280;30240;47.418;0.700;2023-04-08T05:44:18;100999.69482421875;;;5.11;88.67
44531;BME280;30240;47.418;0.700;2023-04-08T05:46:44;100997.52197265625;;;5.04;88.57
44531;BME280;30240;47.418;0.700;2023-04-08T05:49:08;101003.39965820312;;;5.11;88.64
44531;BME280;30240;47.418;0.700;2023-04-08T05:51:33;101005.35278320312;;;5.15;88.62
44531;BME280;30240;47.418;0.700;2023-04-08T05:53:59;101005.35278320312;;;5.15;88.62
44531;BME280;30240;47.418;0.700;2023-04-08T05:56:24;100999.42016601562;;;5.24;88.47
44531;BME280;30240;47.418;0.700;2023-04-08T05:58:49;101005.2001953125;;;5.25;88.48
44531;BME280;30240;47.418;0.700;2023-04-08T06:01:13;101005.70068359375;;;5.25;88.36
44531;BME280;30240;47.418;0.700;2023-04-08T06:03:38;101001.86157226562;;;5.38;88.38
44531;BME280;30240;47.418;0.700;2023-04-08T06:06:08;101001.86157226562;;;5.38;88.38
44531;BME280;30240;47.418;0.700;2023-04-08T06:08:28;101005.09643554688;;;5.43;88.2
44531;BME280;30240;47.418;0.700;2023-04-08T06:10:53;100998.98681640625;;;5.45;88.08
44531;BME280;30240;47.418;0.700;2023-04-08T06:13:18;101002.099609375;;;5.59;87.92
44531;BME280;30240;47.418;0.700;2023-04-08T06:15:43;101007.03735351562;;;5.69;87.68
44531;BME280;30240;47.418;0.700;2023-04-08T06:18:08;101007.03735351562;;;5.69;87.68
44531;BME280;30240;47.418;0.700;2023-04-08T06:20:34;101012.70141601562;;;5.7;87.62
44531;BME280;30240;47.418;0.700;2023-04-08T06:22:58;101019.5556640625;;;5.71;87.47
44531;BME280;30240;47.418;0.700;2023-04-08T06:25:23;101020.90454101562;;;5.88;87.33
44531;BME280;30240;47.418;0.700;2023-04-08T06:27:48;101019.95239257812;;;5.94;87.11
44531;BME280;30240;47.418;0.700;2023-04-08T06:30:14;101026.78833007812;;;6.04;86.87
44531;BME280;30240;47.418;0.700;2023-04-08T06:32:38;101026.78833007812;;;6.04;86.87
44531;BME280;30240;47.418;0.700;2023-04-08T06:35:04;101033.17260742188;;;6.23;86.64
44531;BME280;30240;47.418;0.700;2023-04-08T06:37:28;101032.95288085938;;;6.33;86.22
44531;BME280;30240;47.418;0.700;2023-04-08T06:39:53;101035.18676757812;;;6.44;85.86
44531;BME280;30240;47.418;0.700;2023-04-08T06:42:19;101035.85205078125;;;6.4;85.92
44531;BME280;30240;47.418;0.700;2023-04-08T06:44:43;101035.85205078125;;;6.4;85.92
44531;BME280;30240;47.418;0.700;2023-04-08T06:47:08;101031.8359375;;;6.43;85.8
44531;BME280;30240;47.418;0.700;2023-04-08T06:49:33;101037.83569335938;;;6.6;85.65
44531;BME280;30240;47.418;0.700;2023-04-08T06:51:58;101042.32788085938;;;6.68;85.63
44531;BME280;30240;47.418;0.700;2023-04-08T06:54:23;101043.32885742188;;;6.89;85.02
44531;BME280;30240;47.418;0.700;2023-04-08T06:56:48;101043.32885742188;;;6.89;85.02
44531;BME280;30240;47.418;0.700;2023-04-08T06:59:13;101046.45385742188;;;6.96;84.71
44531;BME280;30240;47.418;0.700;2023-04-08T07:01:38;101046.39282226562;;;7.09;84.41
44531;BME280;30240;47.418;0.700;2023-04-08T07:04:03;101046.54541015625;;;7.13;84.28
44531;BME280;30240;47.418;0.700;2023-04-08T07:06:29;101048.876953125;;;7.35;83.94
44531;BME280;30240;47.418;0.700;2023-04-08T07:08:54;101048.876953125;;;7.35;83.94
44531;BME280;30240;47.418;0.700;2023-04-08T07:11:19;101051.72119140625;;;7.43;83.59
44531;BME280;30240;47.418;0.700;2023-04-08T07:13:44;101054.931640625;;;7.73;83.15
44531;BME280;30240;47.418;0.700;2023-04-08T07:16:08;101040.76538085938;;;7.59;82.8
44531;BME280;30240;47.418;0.700;2023-04-08T07:18:33;101044.95239257812;;;7.69;82.94
44531;BME280;30240;47.418;0.700;2023-04-08T07:20:58;101044.95239257812;;;7.69;82.94
44531;BME280;30240;47.418;0.700;2023-04-08T07:23:23;101047.8759765625;;;7.8;83.01
44531;BME280;30240;47.418;0.700;2023-04-08T07:25:48;101051.45263671875;;;8.31;81.95
44531;BME280;30240;47.418;0.700;2023-04-08T07:28:14;101052.59399414062;;;8.69;80.53
44531;BME280;30240;47.418;0.700;2023-04-08T07:30:38;101050.830078125;;;8.94;79.49
44531;BME280;30240;47.418;0.700;2023-04-08T07:33:04;101050.830078125;;;8.94;79.49
44531;BME280;30240;47.418;0.700;2023-04-08T07:35:28;101051.20239257812;;;9.39;78.78
44531;BME280;30240;47.418;0.700;2023-04-08T07:37:53;101048.66943359375;;;9.9;78.36
44531;BME280;30240;47.418;0.700;2023-04-08T07:40:18;101056.45141601562;;;9.73;77.99
44531;BME280;30240;47.418;0.700;2023-04-08T07:42:44;101053.90625;;;9.9;77.75
44531;BME280;30240;47.418;0.700;2023-04-08T07:45:09;101053.90625;;;9.9;77.75
44531;BME280;30240;47.418;0.700;2023-04-08T07:47:33;101059.4970703125;;;10.3;77.17
44531;BME280;30240;47.418;0.700;2023-04-08T07:49:59;101054.54711914062;;;10.32;76.8
44531;BME280;30240;47.418;0.700;2023-04-08T07:52:24;101057.28759765625;;;10.12;76.87
44531;BME280;30240;47.418;0.700;2023-04-08T07:54:49;101057.72094726562;;;10.22;76.81
44531;BME280;30240;47.418;0.700;2023-04-08T07:57:14;101053.54614257812;;;10.65;75.97
44531;BME280;30240;47.418;0.700;2023-04-08T07:59:38;101053.54614257812;;;10.65;75.97
44531;BME280;30240;47.418;0.700;2023-04-08T08:02:04;101049.609375;;;10.58;75.75
44531;BME280;30240;47.418;0.700;2023-04-08T08:04:29;101051.47094726562;;;10.64;75.93
44531;BME280;30240;47.418;0.700;2023-04-08T08:06:53;101058.36181640625;;;10.84;75.62
44531;BME280;30240;47.418;0.700;2023-04-08T08:09:19;101059.43603515625;;;11.78;74.15
44531;BME280;30240;47.418;0.700;2023-04-08T08:11:44;101059.43603515625;;;11.78;74.15
44531;BME280;30240;47.418;0.700;2023-04-08T08:14:09;101063.7451171875;;;12.35;72.93
44531;BME280;30240;47.418;0.700;2023-04-08T08:16:34;101061.90795898438;;;11.97;73.22
44531;BME280;30240;47.418;0.700;2023-04-08T08:18:59;101061.5478515625;;;12.1;73.81
44531;BME280;30240;47.418;0.700;2023-04-08T08:21:24;101064.82543945312;;;12.65;72.55
44531;BME280;30240;47.418;0.700;2023-04-08T08:23:51;101064.82543945312;;;12.65;72.55
44531;BME280;30240;47.418;0.700;2023-04-08T08:26:14;101066.48559570312;;;13.11;72.44
44531;BME280;30240;47.418;0.700;2023-04-08T08:28:39;101063.00048828125;;;12.69;71.6
44531;BME280;30240;47.418;0.700;2023-04-08T08:31:04;101061.0595703125;;;12.53;72.04
44531;BME280;30240;47.418;0.700;2023-04-08T08:33:29;101061.328125;;;12.28;71.7
44531;BME280;30240;47.418;0.700;2023-04-08T08:35:54;101061.328125;;;12.28;71.7
44531;BME280;30240;47.418;0.700;2023-04-08T08:38:19;101058.8134765625;;;12.77;72.26
44531;BME280;30240;47.418;0.700;2023-04-08T08:40:44;101071.2646484375;;;12.65;72.16
44531;BME280;30240;47.418;0.700;2023-04-08T08:43:09;101058.22143554688;;;13.59;71.6
44531;BME280;30240;47.418;0.700;2023-04-08T08:45:37;101063.3544921875;;;14.09;70.1
44531;BME280;30240;47.418;0.700;2023-04-08T08:47:59;101063.3544921875;;;14.09;70.1
44531;BME280;30240;47.418;0.700;2023-04-08T08:50:24;101059.48486328125;;;14.35;68.61
44531;BME280;30240;47.418;0.700;2023-04-08T08:52:49;101055.13916015625;;;14.77;67.65
44531;BME280;30240;47.418;0.700;2023-04-08T08:55:14;101056.43920898438;;;14.99;67.29
44531;BME280;30240;47.418;0.700;2023-04-08T08:57:39;101053.2470703125;;;14.18;69.15
44531;BME280;30240;47.418;0.700;2023-04-08T09:00:04;101053.2470703125;;;14.18;69.15
44531;BME280;30240;47.418;0.700;2023-04-08T09:02:30;101056.45141601562;;;15.03;67.56
44531;BME280;30240;47.418;0.700;2023-04-08T09:04:55;101061.48681640625;;;15.02;66.49
44531;BME280;30240;47.418;0.700;2023-04-08T09:07:23;101061.23657226562;;;15.12;66.89
44531;BME280;30240;47.418;0.700;2023-04-08T09:09:47;101062.39013671875;;;14.66;67.17
44531;BME280;30240;47.418;0.700;2023-04-08T09:12:09;101062.39013671875;;;14.66;67.17
44531;BME280;30240;47.418;0.700;2023-04-08T09:14:34;101056.03637695312;;;14.19;67.45
44531;BME280;30240;47.418;0.700;2023-04-08T09:16:59;101059.29565429688;;;15.16;65.82
44531;BME280;30240;47.418;0.700;2023-04-08T09:19:24;101072.1435546875;;;15.15;66.33
44531;BME280;30240;47.418;0.700;2023-04-08T09:22:04;101072.15576171875;;;15.72;64.6
44531;BME280;30240;47.418;0.700;2023-04-08T09:24:27;101072.15576171875;;;15.72;64.6
44531;BME280;30240;47.418;0.700;2023-04-08T09:26:39;101069.873046875;;;16.69;63.88
44531;BME280;30240;47.418;0.700;2023-04-08T09:26:44;101069.873046875;;;16.69;63.88
44531;BME280;30240;47.418;0.700;2023-04-08T09:29:05;101067.0654296875;;;15.85;64.27
44531;BME280;30240;47.418;0.700;2023-04-08T09:31:30;101068.45092773438;;;16.16;64.66
44531;BME280;30240;47.418;0.700;2023-04-08T09:33:55;101063.5009765625;;;16.09;63.13
44531;BME280;30240;47.418;0.700;2023-04-08T09:36:19;101063.78173828125;;;15.84;64.16
44531;BME280;30240;47.418;0.700;2023-04-08T09:38:44;101063.78173828125;;;15.84;64.16
44531;BME280;30240;47.418;0.700;2023-04-08T09:41:13;101069.54956054688;;;16.19;62.88
44531;BME280;30240;47.418;0.700;2023-04-08T09:43:36;101075.00610351562;;;16.76;63.14
44531;BME280;30240;47.418;0.700;2023-04-08T09:43:41;101075.00610351562;;;16.76;63.14
44531;BME280;30240;47.418;0.700;2023-04-08T09:46:00;101072.73559570312;;;16.45;62.3
44531;BME280;30240;47.418;0.700;2023-04-08T09:48:26;101076.03149414062;;;16.24;62.46
44531;BME280;30240;47.418;0.700;2023-04-08T09:50:49;101076.03149414062;;;16.24;62.46
44531;BME280;30240;47.418;0.700;2023-04-08T09:53:18;101073.71826171875;;;16.69;62.04
44531;BME280;30240;47.418;0.700;2023-04-08T09:55:40;101078.7109375;;;16.65;61.6
44531;BME280;30240;47.418;0.700;2023-04-08T09:58:10;101076.16577148438;;;17.2;60.79
44531;BME280;30240;47.418;0.700;2023-04-08T09:58:14;101076.16577148438;;;17.2;60.79
44531;BME280;30240;47.418;0.700;2023-04-08T10:00:31;101070.37353515625;;;16.96;61.11
44531;BME280;30240;47.418;0.700;2023-04-08T10:02:57;101070.37353515625;;;16.96;61.11
44531;BME280;30240;47.418;0.700;2023-04-08T10:03:02;101070.37353515625;;;16.96;61.11
44531;BME280;30240;47.418;0.700;2023-04-08T10:03:05;101070.37353515625;;;16.96;61.11
44531;BME280;30240;47.418;0.700;2023-04-08T10:05:19;101076.904296875;;;17.72;58.72
44531;BME280;30240;47.418;0.700;2023-04-08T10:07:44;101073.2666015625;;;16.65;59.26
44531;BME280;30240;47.418;0.700;2023-04-08T10:10:09;101073.98681640625;;;17.26;58.56
44531;BME280;30240;47.418;0.700;2023-04-08T10:12:35;101069.384765625;;;17.28;57.9
44531;BME280;30240;47.418;0.700;2023-04-08T10:15:25;101069.384765625;;;17.28;57.9
44531;BME280;30240;47.418;0.700;2023-04-08T10:17:24;101072.69287109375;;;16.48;58.65
44531;BME280;30240;47.418;0.700;2023-04-08T10:19:48;101073.54736328125;;;16.83;58.8
44531;BME280;30240;47.418;0.700;2023-04-08T10:22:45;101068.95141601562;;;15.98;60.08
44531;BME280;30240;47.418;0.700;2023-04-08T10:24:40;101071.923828125;;;17.32;58.3
44531;BME280;30240;47.418;0.700;2023-04-08T10:27:37;101071.923828125;;;17.32;58.3
44531;BME280;30240;47.418;0.700;2023-04-08T10:29:30;101067.65747070312;;;16.96;58.81
44531;BME280;30240;47.418;0.700;2023-04-08T10:31:53;101070.14770507812;;;16.92;58.78
44531;BME280;30240;47.418;0.700;2023-04-08T10:34:20;101059.65576171875;;;18.12;57.74
44531;BME280;30240;47.418;0.700;2023-04-08T10:36:44;101072.265625;;;17.55;59.37
44531;BME280;30240;47.418;0.700;2023-04-08T10:39:09;101072.265625;;;17.55;59.37
44531;BME280;30240;47.418;0.700;2023-04-08T10:41:33;101061.63940429688;;;18.01;56.88
44531;BME280;30240;47.418;0.700;2023-04-08T10:44:02;101055.78002929688;;;18.98;55.13
44531;BME280;30240;47.418;0.700;2023-04-08T10:46:26;101055.71899414062;;;19.15;54.6
44531;BME280;30240;47.418;0.700;2023-04-08T10:48:58;101056.84204101562;;;19.45;54.3
44531;BME280;30240;47.418;0.700;2023-04-08T10:51:14;101056.84204101562;;;19.45;54.3
44531;BME280;30240;47.418;0.700;2023-04-08T10:53:38;101052.2216796875;;;19.23;51.79
44531;BME280;30240;47.418;0.700;2023-04-08T10:56:04;101053.37524414062;;;18.56;53.63
44531;BME280;30240;47.418;0.700;2023-04-08T10:58:29;101046.54541015625;;;18.56;53.57
44531;BME280;30240;47.418;0.700;2023-04-08T11:00:54;101039.6240234375;;;18.07;56.57
44531;BME280;30240;47.418;0.700;2023-04-08T11:03:18;101042.21801757812;;;18.1;55.84
44531;BME280;30240;47.418;0.700;2023-04-08T11:05:44;101042.21801757812;;;18.1;55.84
44531;BME280;30240;47.418;0.700;2023-04-08T11:08:08;101035.71166992188;;;19.42;53.14
44531;BME280;30240;47.418;0.700;2023-04-08T11:10:36;101028.87573242188;;;18.71;51.93
44531;BME280;30240;47.418;0.700;2023-04-08T11:12:59;101026.953125;;;17.77;53.55
44531;BME280;30240;47.418;0.700;2023-04-08T11:15:24;101032.373046875;;;18.22;52.74
44531;BME280;30240;47.418;0.700;2023-04-08T11:17:49;101032.373046875;;;18.22;52.74